Detall de PIREP

Printer-friendly versionPDF version

[2012/04/30 20:56:00]
Flight IATA:CT1005
Pilot Number:037
Company ICAO:CAT
Aircraft Type:B752/E
PAX:62
Departing Airport: LGTS
Destination Airport: LCLK
Alternate Airport:OLBA
Online: VATSIM
Route:TSL UN130 MES UL609 RDS UM601 EVENO UR19 DASNI UM601 DAROS

Flight Level:F370
No Slew and time accel
No pause
Crash detect
Detect pilot in Cockpit between each 30 and 45 minutes
20:56 Zero fuel Weight: 155466 Lbs, Fuel Weight: 23646 Lbs
20:56 VATSIM:LGTS 302020Z 10005KT CAVOK 17/08 Q1016 NOSIG
20:56 VATSIM:LCLK 302030Z 34005KT 280V070 CAVOK 20/12 Q1009 NOSIG
21:08 Parking Brakes off
21:13 Take-off
21:13 Take off Weight: 178011 Lbs
21:13 Wind: 127º @ 004 Knots Heading: 104º
21:13 POS N40º 31´ 08´´ E022º 58´ 29´´
21:13 Gear Up: 185 Knots
21:13 Flaps:2 at 185 Knots
21:13 Flaps:1 at 190 Knots
21:13 Flaps:0 at 224 Knots
21:28 Wind:333º@012 Knots Heading: 134º Ground Speed: 382 Knots Altitude 31909 ft
21:30 TOC
21:30 Fuel Weight: 18800 Lb
21:43 Wind:356º@018 Knots Heading: 133º Ground Speed: 474 Knots Altitude 37004 ft
21:58 Wind:350º@015 Knots Heading: 135º Ground Speed: 475 Knots Altitude 36955 ft
22:13 Wind:015º@018 Knots Heading: 106º Ground Speed: 462 Knots Altitude 36958 ft
22:27 TOD
22:27 Fuel Weight: 12196 Lb
22:28 Wind:290º@014 Knots Heading: 107º Ground Speed: 469 Knots Altitude 36555 ft
22:43 Wind:314º@011 Knots Heading: 108º Ground Speed: 248 Knots Altitude 5121 ft
22:45 Flaps:1 at 214 Knots
22:47 Flaps:2 at 184 Knots
22:49 Gear Down: 160 Knots
22:49 Flaps:3 at 160 Knots
22:49 Flaps:4 at 150 Knots
22:50 Flaps:5 at 142 Knots
22:51 Flaps:6 at 128 Knots
22:51 TouchDown:Rate -170 ft/min Speed: 116 Knots
22:52 VATSIM:LCLK 302230Z 33007KT CAVOK 21/12 Q1008 NOSIG
22:52 Land
22:52 Wind:326º@007 Knots
22:52 Heading: 223º
22:52 Flight Duration: 01:39
22:52 Landing Weight: 166177 Lbs
22:52 POS N34º 52´ 29´´ E033º 37´ 30´´
22:54 Parking brakes on
22:54 Block to Block Duration: 01:46
22:54 Final Fuel: 10465 Lbls
22:54 Spent Fuel: 13181 Lbls
22:54 Flight Length: 535 NM
22:54 TOD Land Length: 119 NM

Exportar CSV

Powered by Drupal - Modified by Danger4k